createdAt,value
2022-09-10T00:01:32.070Z,17.90
2022-09-10T00:04:01.331Z,17.80
2022-09-10T00:06:29.417Z,17.80
2022-09-10T00:08:58.588Z,18.00
2022-09-10T00:11:31.095Z,17.80
2022-09-10T00:14:11.866Z,17.80
2022-09-10T00:16:39.125Z,17.70
2022-09-10T00:19:06.782Z,17.70
2022-09-10T00:21:35.503Z,17.60
2022-09-10T00:24:05.123Z,17.60
2022-09-10T00:26:38.552Z,17.60
2022-09-10T00:29:11.852Z,17.50
2022-09-10T00:31:39.918Z,17.50
2022-09-10T00:34:09.156Z,17.50
2022-09-10T00:36:40.250Z,17.40
2022-09-10T00:39:15.674Z,17.40
2022-09-10T00:41:45.828Z,17.60
2022-09-10T00:44:39.380Z,17.40
2022-09-10T00:47:24.577Z,17.30
2022-09-10T00:50:16.397Z,17.30
2022-09-10T00:52:43.881Z,17.20
2022-09-10T00:55:12.741Z,17.20
2022-09-10T00:57:42.012Z,17.20
2022-09-10T01:00:12.457Z,17.20
2022-09-10T01:02:41.661Z,17.10
2022-09-10T01:05:10.056Z,17.10
2022-09-10T01:07:37.817Z,17.10
2022-09-10T01:10:18.265Z,17.10
2022-09-10T01:13:00.873Z,17.00
2022-09-10T01:15:40.931Z,17.00
2022-09-10T01:18:39.984Z,16.90
2022-09-10T01:21:27.877Z,16.90
2022-09-10T01:24:34.318Z,16.90
2022-09-10T01:27:24.846Z,16.90
2022-09-10T01:30:10.065Z,16.80
2022-09-10T01:32:46.985Z,16.80
2022-09-10T01:35:33.326Z,16.80
2022-09-10T01:38:05.076Z,16.70
2022-09-10T01:40:33.588Z,16.70
2022-09-10T01:43:11.066Z,16.70
2022-09-10T01:46:37.237Z,16.70
2022-09-10T01:49:39.220Z,16.70
2022-09-10T01:52:39.113Z,16.60
2022-09-10T01:55:31.443Z,16.60
2022-09-10T01:58:33.660Z,16.60
2022-09-10T02:01:20.825Z,16.60
2022-09-10T02:03:52.516Z,16.50
2022-09-10T02:06:29.593Z,16.60
2022-09-10T02:09:00.392Z,16.50
2022-09-10T02:11:28.830Z,16.50
2022-09-10T02:13:59.607Z,16.50
2022-09-10T02:17:04.952Z,16.50
2022-09-10T02:19:32.760Z,16.50
2022-09-10T02:22:00.910Z,16.50
2022-09-10T02:24:28.700Z,16.40
2022-09-10T02:26:55.538Z,16.50
2022-09-10T02:29:23.221Z,16.40
2022-09-10T02:31:50.206Z,16.40
2022-09-10T02:34:20.195Z,16.40
2022-09-10T02:36:49.437Z,16.50
2022-09-10T02:39:16.521Z,16.50
2022-09-10T02:41:44.564Z,16.50
2022-09-10T02:44:12.251Z,16.60
2022-09-10T02:46:39.039Z,16.50
2022-09-10T02:49:06.280Z,16.50
2022-09-10T02:51:37.107Z,16.50
2022-09-10T02:54:04.593Z,16.50
2022-09-10T02:56:32.398Z,16.50
2022-09-10T02:58:59.455Z,16.40
2022-09-10T03:01:27.975Z,16.50
2022-09-10T03:04:04.078Z,16.50
2022-09-10T03:06:32.336Z,16.50
2022-09-10T03:08:59.295Z,16.50
2022-09-10T03:11:27.425Z,16.50
2022-09-10T03:13:55.046Z,16.50
2022-09-10T03:16:24.110Z,16.50
2022-09-10T03:18:52.292Z,16.50
2022-09-10T03:21:22.821Z,16.50
2022-09-10T03:23:52.271Z,16.50
2022-09-10T03:26:25.264Z,16.50
2022-09-10T03:28:53.895Z,16.50
2022-09-10T03:31:23.032Z,16.50
2022-09-10T03:33:52.333Z,16.50
2022-09-10T03:36:20.832Z,16.60
2022-09-10T03:38:49.479Z,16.50
2022-09-10T03:41:16.524Z,16.50
2022-09-10T03:43:43.677Z,16.50
2022-09-10T03:46:12.263Z,16.50
2022-09-10T03:48:43.577Z,16.50
2022-09-10T03:51:11.279Z,16.50
2022-09-10T03:53:39.539Z,16.50
2022-09-10T03:56:08.592Z,16.50
2022-09-10T03:58:35.942Z,16.50
2022-09-10T04:01:04.440Z,16.50
2022-09-10T04:03:35.095Z,16.40
2022-09-10T04:06:01.921Z,16.40
2022-09-10T04:08:28.965Z,16.40
2022-09-10T04:11:01.643Z,16.40
2022-09-10T04:13:28.823Z,16.40
2022-09-10T04:15:56.076Z,16.50
2022-09-10T04:18:23.491Z,16.40
2022-09-10T04:20:50.805Z,16.40
2022-09-10T04:23:17.650Z,16.40
2022-09-10T04:25:46.446Z,16.30
2022-09-10T04:28:13.745Z,16.30
2022-09-10T04:30:40.685Z,16.30
2022-09-10T04:33:09.720Z,16.30
2022-09-10T04:35:36.786Z,16.30
2022-09-10T04:38:07.956Z,16.30
2022-09-10T04:40:38.449Z,16.20
2022-09-10T04:43:05.669Z,16.30
2022-09-10T04:45:37.247Z,16.50
2022-09-10T04:48:07.260Z,16.20
2022-09-10T04:50:35.864Z,16.20
2022-09-10T04:53:15.353Z,16.20
2022-09-10T04:55:45.701Z,16.10
2022-09-10T04:58:13.759Z,16.10
2022-09-10T05:00:42.191Z,16.30
2022-09-10T05:03:09.499Z,16.10
2022-09-10T05:05:37.977Z,16.00
2022-09-10T05:08:08.079Z,16.00
2022-09-10T05:10:39.036Z,16.00
2022-09-10T05:13:07.508Z,16.00
2022-09-10T05:15:35.802Z,16.00
2022-09-10T05:18:04.763Z,16.10
2022-09-10T05:20:35.801Z,16.00
2022-09-10T05:23:03.067Z,16.00
2022-09-10T05:25:30.010Z,16.00
2022-09-10T05:28:01.288Z,16.00
2022-09-10T05:30:32.762Z,16.10
2022-09-10T05:33:01.495Z,16.10
2022-09-10T05:35:30.514Z,16.10
2022-09-10T05:38:00.647Z,16.10
2022-09-10T05:40:29.418Z,16.20
2022-09-10T05:42:57.120Z,16.20
2022-09-10T05:45:24.258Z,16.20
2022-09-10T05:47:52.843Z,16.30
2022-09-10T05:50:47.313Z,16.30
2022-09-10T05:53:14.411Z,16.40
2022-09-10T05:55:41.348Z,16.50
2022-09-10T05:58:08.237Z,16.50
2022-09-10T06:00:37.739Z,16.60
2022-09-10T06:03:05.444Z,16.80
2022-09-10T06:05:52.312Z,16.70
2022-09-10T06:08:26.923Z,16.70
2022-09-10T06:11:00.482Z,16.90
2022-09-10T06:13:33.517Z,16.90
2022-09-10T06:16:01.592Z,17.00
2022-09-10T06:18:30.054Z,17.10
2022-09-10T06:21:13.282Z,17.20
2022-09-10T06:23:43.601Z,17.20
2022-09-10T06:26:18.394Z,17.30
2022-09-10T06:29:11.709Z,17.40
2022-09-10T06:31:40.910Z,17.60
2022-09-10T06:34:08.492Z,17.60
2022-09-10T06:36:35.423Z,17.80
2022-09-10T06:39:03.697Z,17.90
2022-09-10T06:41:39.637Z,18.00
2022-09-10T06:44:12.635Z,18.10
2022-09-10T06:49:37.472Z,18.40
2022-09-10T06:52:05.441Z,18.50
2022-09-10T06:54:33.029Z,18.60
2022-09-10T06:57:11.085Z,18.80
2022-09-10T06:59:38.387Z,18.90
2022-09-10T07:02:05.791Z,19.00
2022-09-10T07:04:32.721Z,19.20
2022-09-10T07:07:00.761Z,19.40
2022-09-10T07:09:27.963Z,19.50
2022-09-10T07:11:57.680Z,19.80
2022-09-10T07:14:25.531Z,20.00
2022-09-10T07:16:53.608Z,20.20
2022-09-10T07:19:23.699Z,20.40
2022-09-10T07:21:51.175Z,20.70
2022-09-10T07:24:21.598Z,21.00
2022-09-10T07:27:03.113Z,21.10
2022-09-10T07:29:31.161Z,21.40
2022-09-10T07:31:58.812Z,21.90
2022-09-10T07:34:26.970Z,21.80
2022-09-10T07:36:56.723Z,22.30
2022-09-10T07:39:25.879Z,22.80
2022-09-10T07:41:55.594Z,23.00
2022-09-10T07:44:26.755Z,23.40
2022-09-10T07:46:56.604Z,23.80
2022-09-10T07:49:23.622Z,24.30
2022-09-10T07:51:57.668Z,24.70
2022-09-10T07:54:31.383Z,25.20
2022-09-10T07:56:59.591Z,25.60
2022-09-10T07:59:27.561Z,26.10
2022-09-10T08:02:01.740Z,26.70
2022-09-10T08:04:36.797Z,27.00
2022-09-10T08:07:07.474Z,27.60
2022-09-10T08:09:37.595Z,27.80
2022-09-10T08:12:07.696Z,28.20
2022-09-10T08:14:38.078Z,28.60
2022-09-10T08:17:05.612Z,29.00
2022-09-10T08:19:37.341Z,29.40
2022-09-10T08:22:04.504Z,29.60
2022-09-10T08:24:38.083Z,29.90
2022-09-10T08:27:05.536Z,30.20
2022-09-10T08:29:32.356Z,30.50
2022-09-10T08:32:00.124Z,30.70
2022-09-10T08:34:30.834Z,31.00
2022-09-10T08:37:08.778Z,31.30
2022-09-10T08:39:37.172Z,31.50
2022-09-10T08:42:37.872Z,31.70
2022-09-10T08:45:14.880Z,31.90
2022-09-10T08:48:19.322Z,32.10
2022-09-10T08:51:00.813Z,32.30
2022-09-10T08:53:44.257Z,32.50
2022-09-10T08:56:20.997Z,32.70
2022-09-10T08:59:05.202Z,32.90
2022-09-10T09:01:55.646Z,32.90
2022-09-10T09:04:43.657Z,33.40
2022-09-10T09:07:19.954Z,33.70
2022-09-10T09:09:56.520Z,34.00
2022-09-10T09:12:39.221Z,34.30
2022-09-10T09:15:21.050Z,34.70
2022-09-10T09:18:04.119Z,35.10
2022-09-10T09:21:08.645Z,35.50
2022-09-10T09:24:12.615Z,36.00
2022-09-10T09:26:47.179Z,36.30
2022-09-10T09:29:29.108Z,36.70
2022-09-10T09:32:03.932Z,36.90
2022-09-10T09:34:42.269Z,37.30
2022-09-10T09:37:25.117Z,37.30
2022-09-10T09:40:13.608Z,37.70
2022-09-10T09:42:56.169Z,37.90
2022-09-10T09:45:37.670Z,38.10
2022-09-10T09:48:14.222Z,38.10
2022-09-10T09:50:49.645Z,38.10
2022-09-10T09:53:26.420Z,38.10
2022-09-10T09:55:59.398Z,38.00
2022-09-10T09:58:30.314Z,37.90
2022-09-10T10:01:03.880Z,37.80
2022-09-10T10:03:43.365Z,37.80
2022-09-10T10:06:12.376Z,37.70
2022-09-10T10:08:43.488Z,37.90
2022-09-10T10:11:15.885Z,38.10
2022-09-10T10:13:47.306Z,38.30
2022-09-10T10:16:33.771Z,38.70
2022-09-10T10:19:00.632Z,38.90
2022-09-10T10:21:33.337Z,39.40
2022-09-10T10:24:00.961Z,39.70
2022-09-10T10:26:36.252Z,40.10
2022-09-10T10:29:19.684Z,40.20
2022-09-10T10:31:49.614Z,40.50
2022-09-10T10:34:38.036Z,40.70
2022-09-10T10:37:57.817Z,41.00
2022-09-10T10:40:38.761Z,41.40
2022-09-10T10:43:41.912Z,41.60
2022-09-10T10:46:21.954Z,41.50
2022-09-10T10:49:28.216Z,41.20
2022-09-10T10:53:05.264Z,40.90
2022-09-10T10:56:07.188Z,40.30
2022-09-10T10:59:24.996Z,39.60
2022-09-10T11:02:03.351Z,39.10
2022-09-10T11:04:36.717Z,38.60
2022-09-10T11:07:16.850Z,38.40
2022-09-10T11:10:16.439Z,37.80
2022-09-10T11:13:03.294Z,37.30
2022-09-10T11:15:52.454Z,36.50
2022-09-10T11:18:31.736Z,35.90
2022-09-10T11:21:11.889Z,35.30
2022-09-10T11:23:53.017Z,34.90
2022-09-10T11:26:40.494Z,34.30
2022-09-10T11:29:41.582Z,33.70
2022-09-10T11:32:39.866Z,33.10
2022-09-10T11:35:34.197Z,32.50
2022-09-10T11:38:23.254Z,32.00
2022-09-10T11:41:24.295Z,31.50
2022-09-10T11:44:36.217Z,31.00
2022-09-10T11:47:14.467Z,30.50
2022-09-10T11:50:27.105Z,30.10
2022-09-10T11:53:00.566Z,29.80
2022-09-10T11:56:11.799Z,29.60
2022-09-10T11:58:56.580Z,29.30
2022-09-10T12:01:56.266Z,29.00
2022-09-10T12:04:47.719Z,28.80
2022-09-10T12:08:00.734Z,28.60
2022-09-10T12:11:00.702Z,28.40
2022-09-10T12:13:28.128Z,28.30
2022-09-10T12:16:02.653Z,28.10
2022-09-10T12:18:43.060Z,28.00
2022-09-10T12:21:30.029Z,27.80
2022-09-10T12:23:57.296Z,27.70
2022-09-10T12:26:24.786Z,27.70
2022-09-10T12:28:51.497Z,27.60
2022-09-10T12:31:21.394Z,27.60
2022-09-10T12:33:48.395Z,27.80
2022-09-10T12:37:04.951Z,28.10
2022-09-10T12:39:34.290Z,28.60
2022-09-10T12:42:23.641Z,29.00
2022-09-10T12:44:50.502Z,29.30
2022-09-10T12:47:17.537Z,29.50
2022-09-10T12:50:04.077Z,29.70
2022-09-10T12:52:50.842Z,29.80
2022-09-10T12:55:57.942Z,29.80
2022-09-10T12:58:55.949Z,29.80
2022-09-10T13:01:28.990Z,29.80
2022-09-10T13:04:02.493Z,29.80
2022-09-10T13:06:40.541Z,29.90
2022-09-10T13:09:28.129Z,29.80
2022-09-10T13:12:03.845Z,29.80
2022-09-10T13:14:39.658Z,29.80
2022-09-10T13:17:40.478Z,29.80
2022-09-10T13:20:29.385Z,29.50
2022-09-10T13:23:09.564Z,29.10
2022-09-10T13:25:43.186Z,28.90
2022-09-10T13:28:28.656Z,28.60
2022-09-10T13:31:13.639Z,28.30
2022-09-10T13:33:49.495Z,27.90
2022-09-10T13:37:02.923Z,27.50
2022-09-10T13:39:48.606Z,27.20
2022-09-10T13:42:42.225Z,27.20
2022-09-10T13:45:28.392Z,27.40
2022-09-10T13:48:22.162Z,27.40
2022-09-10T13:51:15.745Z,27.30
2022-09-10T13:53:46.874Z,27.00
2022-09-10T13:56:25.772Z,26.70
2022-09-10T13:59:03.226Z,26.50
2022-09-10T14:01:58.366Z,26.20
2022-09-10T14:04:30.644Z,25.90
2022-09-10T14:07:22.989Z,25.70
2022-09-10T14:09:56.683Z,25.50
2022-09-10T14:12:27.904Z,25.10
2022-09-10T14:14:59.093Z,24.80
2022-09-10T14:17:45.183Z,24.40
2022-09-10T14:20:24.434Z,24.10
2022-09-10T14:23:07.953Z,23.70
2022-09-10T14:25:38.888Z,23.40
2022-09-10T14:28:32.309Z,23.10
2022-09-10T14:31:27.266Z,22.80
2022-09-10T14:33:59.398Z,22.50
2022-09-10T14:36:29.352Z,22.40
2022-09-10T14:39:21.143Z,22.20
2022-09-10T14:41:49.817Z,22.00
2022-09-10T14:44:22.627Z,21.90
2022-09-10T14:47:09.114Z,21.80
2022-09-10T14:49:47.069Z,21.70
2022-09-10T14:52:14.701Z,21.50
2022-09-10T14:54:41.940Z,21.50
2022-09-10T14:57:14.692Z,21.40
2022-09-10T14:59:46.636Z,21.40
2022-09-10T15:02:21.060Z,21.30
2022-09-10T15:04:48.739Z,21.30
2022-09-10T15:07:16.094Z,21.30
2022-09-10T15:09:42.943Z,21.50
2022-09-10T15:12:31.214Z,21.40
2022-09-10T15:14:58.633Z,21.50
2022-09-10T15:17:25.922Z,21.90
2022-09-10T15:19:55.864Z,22.20
2022-09-10T15:22:27.529Z,22.60
2022-09-10T15:25:11.703Z,23.10
2022-09-10T15:27:38.898Z,23.60
2022-09-10T15:30:07.015Z,24.00
2022-09-10T15:32:33.921Z,24.50
2022-09-10T15:35:01.183Z,24.70
2022-09-10T15:37:28.041Z,25.10
2022-09-10T15:39:56.547Z,25.80
2022-09-10T15:42:23.510Z,26.30
2022-09-10T15:44:50.706Z,26.90
2022-09-10T15:47:17.588Z,27.40
2022-09-10T15:49:44.838Z,28.00
2022-09-10T15:52:11.788Z,28.60
2022-09-10T15:54:38.791Z,29.10
2022-09-10T15:57:07.148Z,29.60
2022-09-10T15:59:34.196Z,29.90
2022-09-10T16:02:01.016Z,30.20
2022-09-10T16:04:30.682Z,30.30
2022-09-10T16:07:00.862Z,30.30
2022-09-10T16:09:27.765Z,30.30
2022-09-10T16:11:55.422Z,30.30
2022-09-10T16:14:23.633Z,30.30
2022-09-10T16:16:51.079Z,30.40
2022-09-10T16:19:18.140Z,30.50
2022-09-10T16:21:48.834Z,30.50
2022-09-10T16:24:16.331Z,30.50
2022-09-10T16:26:47.933Z,30.50
2022-09-10T16:29:22.729Z,30.50
2022-09-10T16:31:50.056Z,30.60
2022-09-10T16:37:10.279Z,30.50
2022-09-10T16:39:37.356Z,30.40
2022-09-10T16:42:04.252Z,30.30
2022-09-10T16:44:32.256Z,30.10
2022-09-10T16:46:59.355Z,29.90
2022-09-10T16:49:27.299Z,29.80
2022-09-10T16:51:54.787Z,29.60
2022-09-10T16:54:22.951Z,29.30
2022-09-10T16:56:50.974Z,29.10
2022-09-10T16:59:21.685Z,28.90
2022-09-10T17:01:51.815Z,28.70
2022-09-10T17:04:28.553Z,28.60
2022-09-10T17:06:57.494Z,28.30
2022-09-10T17:09:25.111Z,28.10
2022-09-10T17:11:52.235Z,27.80
2022-09-10T17:14:20.188Z,27.60
2022-09-10T17:16:48.431Z,27.50
2022-09-10T17:19:23.503Z,27.30
2022-09-10T17:21:53.229Z,26.90
2022-09-10T17:24:25.196Z,26.60
2022-09-10T17:26:52.783Z,26.40
2022-09-10T17:29:24.031Z,26.20
2022-09-10T17:31:52.070Z,25.90
2022-09-10T17:34:21.343Z,25.90
2022-09-10T17:36:48.890Z,25.50
2022-09-10T17:39:18.143Z,25.30
2022-09-10T17:42:10.074Z,25.10
2022-09-10T17:44:37.733Z,24.90
2022-09-10T17:47:04.893Z,24.80
2022-09-10T17:49:31.820Z,24.60
2022-09-10T17:52:00.104Z,24.40
2022-09-10T17:54:27.281Z,24.20
2022-09-10T17:56:54.080Z,24.10
2022-09-10T17:59:22.016Z,24.00
2022-09-10T18:01:48.983Z,23.80
2022-09-10T18:04:16.009Z,23.70
2022-09-10T18:06:46.803Z,23.70
2022-09-10T18:09:16.798Z,23.60
2022-09-10T18:11:44.298Z,23.70
2022-09-10T18:14:22.537Z,23.60
2022-09-10T18:16:51.308Z,23.40
2022-09-10T18:19:18.730Z,23.30
2022-09-10T18:21:47.420Z,23.20
2022-09-10T18:24:24.976Z,23.10
2022-09-10T18:26:53.907Z,23.00
2022-09-10T18:29:24.897Z,23.00
2022-09-10T18:31:57.546Z,22.80
2022-09-10T18:34:28.319Z,22.50
2022-09-10T18:36:58.824Z,22.60
2022-09-10T18:39:28.001Z,22.50
2022-09-10T18:41:57.185Z,22.40
2022-09-10T18:44:28.174Z,22.30
2022-09-10T18:46:57.626Z,22.20
2022-09-10T18:49:25.904Z,22.10
2022-09-10T18:51:55.430Z,22.10
2022-09-10T18:54:24.100Z,22.00
2022-09-10T18:56:51.283Z,21.90
2022-09-10T18:59:21.865Z,21.80
2022-09-10T19:01:51.297Z,21.70
2022-09-10T19:04:27.223Z,21.60
2022-09-10T19:06:55.626Z,21.60
2022-09-10T19:09:31.773Z,21.60
2022-09-10T19:12:02.894Z,21.50
2022-09-10T19:14:32.602Z,21.50
2022-09-10T19:17:01.126Z,21.40
2022-09-10T19:19:36.386Z,21.40
2022-09-10T19:22:07.707Z,21.30
2022-09-10T19:24:53.994Z,21.30
2022-09-10T19:27:21.458Z,21.30
2022-09-10T19:29:49.866Z,21.20
2022-09-10T19:32:17.373Z,21.20
2022-09-10T19:34:44.429Z,21.20
2022-09-10T19:37:11.342Z,21.00
2022-09-10T19:39:38.333Z,21.10
2022-09-10T19:42:06.614Z,21.00
2022-09-10T19:44:34.516Z,21.00
2022-09-10T19:47:03.931Z,21.00
2022-09-10T19:49:31.266Z,20.90
2022-09-10T19:51:58.270Z,20.90
2022-09-10T19:54:25.628Z,20.90
2022-09-10T19:56:52.965Z,20.80
2022-09-10T19:59:23.347Z,20.80
2022-09-10T20:01:50.284Z,20.80
2022-09-10T20:04:17.356Z,20.70
2022-09-10T20:06:46.233Z,20.60
2022-09-10T20:09:13.457Z,20.60
2022-09-10T20:11:40.960Z,20.50
2022-09-10T20:14:13.248Z,20.40
2022-09-10T20:16:45.578Z,20.40
2022-09-10T20:19:20.198Z,20.20
2022-09-10T20:21:48.042Z,20.20
2022-09-10T20:24:16.097Z,20.20
2022-09-10T20:26:43.680Z,20.20
2022-09-10T20:29:14.697Z,20.00
2022-09-10T20:31:43.646Z,19.90
2022-09-10T20:34:21.328Z,19.90
2022-09-10T20:36:52.760Z,19.90
2022-09-10T20:39:25.487Z,19.80
2022-09-10T20:41:52.761Z,19.80
2022-09-10T20:44:20.751Z,19.70
2022-09-10T20:46:47.983Z,19.70
2022-09-10T20:49:16.393Z,19.60
2022-09-10T20:51:46.990Z,19.60
2022-09-10T20:54:22.216Z,19.60
2022-09-10T20:56:49.120Z,19.50
2022-09-10T20:59:17.849Z,19.40
2022-09-10T21:01:46.439Z,19.40
2022-09-10T21:04:14.719Z,19.40
2022-09-10T21:06:41.778Z,19.30
2022-09-10T21:09:09.100Z,19.20
2022-09-10T21:11:36.690Z,19.20
2022-09-10T21:14:06.574Z,19.10
2022-09-10T21:16:39.781Z,19.10
2022-09-10T21:19:13.210Z,19.10
2022-09-10T21:21:42.104Z,19.00
2022-09-10T21:24:13.710Z,18.80
2022-09-10T21:26:43.298Z,18.70
2022-09-10T21:29:17.396Z,18.90
2022-09-10T21:31:45.491Z,18.80
2022-09-10T21:34:13.670Z,18.80
2022-09-10T21:36:41.251Z,18.70
2022-09-10T21:39:14.352Z,18.70
2022-09-10T21:41:48.197Z,18.60
2022-09-10T21:44:18.426Z,18.60
2022-09-10T21:46:50.852Z,18.50
2022-09-10T21:49:18.364Z,18.50
2022-09-10T21:51:45.500Z,18.60
2022-09-10T21:54:21.137Z,18.40
2022-09-10T21:56:50.515Z,18.40
2022-09-10T21:59:18.344Z,18.30
2022-09-10T22:01:48.318Z,18.30
2022-09-10T22:04:22.202Z,18.30
2022-09-10T22:06:49.939Z,18.20
2022-09-10T22:09:17.434Z,18.30
2022-09-10T22:11:47.401Z,18.20
2022-09-10T22:14:18.293Z,18.10
2022-09-10T22:16:46.061Z,18.10
2022-09-10T22:19:17.971Z,18.10
2022-09-10T22:21:45.964Z,18.10
2022-09-10T22:24:14.891Z,18.00
2022-09-10T22:26:44.389Z,18.00
2022-09-10T22:29:15.289Z,18.00
2022-09-10T22:31:42.168Z,18.00
2022-09-10T22:34:13.491Z,17.90
2022-09-10T22:36:44.039Z,17.90
2022-09-10T22:39:18.091Z,17.90
2022-09-10T22:41:46.319Z,17.90
2022-09-10T22:44:13.607Z,17.90
2022-09-10T22:46:41.197Z,17.90
2022-09-10T22:49:08.667Z,17.90
2022-09-10T22:51:39.766Z,17.80
2022-09-10T22:54:08.044Z,17.80
2022-09-10T22:56:35.984Z,17.80
2022-09-10T22:59:04.103Z,17.80
2022-09-10T23:01:37.503Z,17.80
2022-09-10T23:04:07.351Z,17.70
2022-09-10T23:06:36.952Z,17.80
2022-09-10T23:09:18.085Z,17.80
2022-09-10T23:11:45.908Z,17.70
2022-09-10T23:14:19.813Z,17.70
2022-09-10T23:16:50.032Z,17.80
2022-09-10T23:19:21.184Z,17.70
2022-09-10T23:21:54.594Z,17.70
2022-09-10T23:24:24.666Z,17.80
2022-09-10T23:26:52.112Z,17.70
2022-09-10T23:29:19.937Z,17.90
2022-09-10T23:31:47.638Z,17.70
2022-09-10T23:34:18.204Z,17.80
2022-09-10T23:36:47.362Z,17.70
2022-09-10T23:39:20.549Z,17.70
2022-09-10T23:41:49.351Z,17.70
2022-09-10T23:44:17.289Z,17.70
2022-09-10T23:46:48.154Z,17.70
2022-09-10T23:49:15.997Z,17.70
2022-09-10T23:51:45.744Z,17.70
2022-09-10T23:54:13.173Z,17.70
2022-09-10T23:56:40.865Z,17.70
2022-09-10T23:59:08.391Z,17.70
